This is the latest recevied weather packets stored in our database for station/object K7DC. If no packets are shown the sender has not sent any weather packets the latest 10 day(s).
| Time | Temp. | Humidity | Pressure | Rain* | Wind** | Luminosity | Snow |
|---|---|---|---|---|---|---|---|
| 1777644602 | 16.67° C | 67% | 1013 hPa | 0 mm | - | 170 W/m² | - |
| 1777644297 | 16.67° C | 68% | 1013.4 hPa | 0 mm | - | 152 W/m² | - |
| 1777643993 | 16.11° C | 67% | 1013.5 hPa | 0 mm | - | 136 W/m² | - |
| 1777642781 | 15° C | 74% | 1013.1 hPa | 0 mm | - | 77 W/m² | - |
| 1777642478 | 14.44° C | 74% | 1013.1 hPa | 0 mm | - | 67 W/m² | - |
| 1777642174 | 14.44° C | 75% | 1013 hPa | 0 mm | - | 56 W/m² | - |
| 1777641872 | 13.89° C | 76% | 1013.1 hPa | 0 mm | - | 48 W/m² | - |
| 1777641266 | 13.33° C | 77% | 1012.9 hPa | 0 mm | - | 32 W/m² | - |
| 1777639750 | 11.67° C | 84% | 1012.7 hPa | 0 mm | - | 9 W/m² | - |
| 1777638840 | 11.67° C | 84% | 1012.4 hPa | 0 mm | - | 2 W/m² | - |
| 1777638535 | 11.67° C | 85% | 1012.5 hPa | 0 mm | - | 1 W/m² | - |
| 1777638232 | 11.67° C | 85% | 1012.1 hPa | 0 mm | - | 0 W/m² | - |
| 1777637928 | 11.67° C | 85% | 1012.2 hPa | 0 mm | - | 0 W/m² | - |
| 1777637625 | 11.67° C | 85% | 1012 hPa | 0 mm | - | 0 W/m² | - |
| 1777637322 | 11.67° C | 85% | 1012 hPa | 0 mm | - | 0 W/m² | - |
| 1777637019 | 11.67° C | 84% | 1012 hPa | 0 mm | - | 0 W/m² | - |
| 1777636714 | 11.67° C | 85% | 1012.1 hPa | 0 mm | - | 0 W/m² | - |
| 1777636107 | 11.67° C | 84% | 1012.1 hPa | 0 mm | - | 0 W/m² | - |
| 1777635802 | 11.67° C | 83% | 1012.1 hPa | 0 mm | - | 0 W/m² | - |
| 1777635499 | 11.67° C | 82% | 1012 hPa | 0 mm | - | 0 W/m² | - |
| 1777635195 | 12.22° C | 83% | 1011.9 hPa | 0 mm | - | 0 W/m² | - |
| 1777634892 | 12.22° C | 83% | 1011.9 hPa | 0 mm | - | 0 W/m² | - |
| 1777634589 | 12.22° C | 84% | 1011.9 hPa | 0 mm | - | 0 W/m² | - |
| 1777634286 | 12.22° C | 82% | 1011.9 hPa | 0 mm | - | 0 W/m² | - |
| 1777633982 | 12.22° C | 83% | 1012 hPa | 0 mm | - | 0 W/m² | - |
* Rain latest hour (hover to see other rain measurements)
** Current wind speed in m/s (hover to see current wind gust speed)